Flight Track Log - Related Links

Times and Time Zones

All times are in EDT time to prevent confusion due to time zone crossing. See the N520PK flight status page for this flight to view local times or setup timezone preferences in your user account.

Time Position Orientation Groundspeed Altitude Reporting Facility
EDT Latitude Longitude Course Direction KTS MPH feet Rate Location/Type
Sun 06:43:31 PM 38.5500 -90.1167 123° Southeast 120 138 1,200  Level Gateway TRACON
Sun 06:44:25 PM 38.5333 -90.0833 123° Southeast 118 136 1,800 625 Climbing Gateway TRACON
Sun 06:45:07 PM 38.5042 -90.0947 197° South 123 142 2,200 635 Climbing Kansas Center
Sun 06:46:09 PM 38.4736 -90.0939 179° South 116 133 2,900 629 Climbing Kansas Center
Sun 06:47:11 PM 38.4436 -90.0969 185° South 111 128 3,500 581 Climbing Kansas Center
Sun 06:48:13 PM 38.4175 -90.1194 214° Southwest 113 130 4,100 532 Climbing Kansas Center
Sun 06:49:15 PM 38.3925 -90.1397 212° Southwest 110 127 4,600 484 Climbing Kansas Center
Sun 06:50:17 PM 38.3661 -90.1594 210° Southwest 109 125 5,100 528 Climbing Kansas Center
Sun 06:51:20 PM 38.3339 -90.1822 209° Southwest 110 127 5,700 532 Climbing Kansas Center
Sun 06:52:21 PM 38.3053 -90.2003 206° Southwest 112 129 6,200 244 Climbing Kansas Center
Sun 06:53:23 PM 38.2761 -90.2217 210° Southwest 116 133 6,200  Level Kansas Center
Sun 06:54:25 PM 38.2428 -90.2447 209° Southwest 130 150 6,200  Level Kansas Center
Sun 06:55:27 PM 38.2081 -90.2683 208° Southwest 138 159 6,200  Level Kansas Center
Sun 06:56:29 PM 38.1728 -90.2919 208° Southwest 142 163 6,200  Level Kansas Center
Sun 06:57:31 PM 38.1306 -90.3197 207° Southwest 142 163 6,200 -48 Level Kansas Center
Sun 06:58:33 PM 38.0958 -90.3450 210° Southwest 143 165 6,100 -97 Descending Kansas Center
Sun 06:59:35 PM 38.0592 -90.3728 211° Southwest 152 175 6,000 -48 Descending Kansas Center
Sun 07:00:37 PM 38.0231 -90.4003 211° Southwest 151 174 6,000  Level Kansas Center
Sun 07:01:39 PM 37.9881 -90.4281 212° Southwest 149 171 6,000  Level Kansas Center
Sun 07:02:41 PM 37.9525 -90.4539 210° Southwest 147 169 6,000  Level Kansas Center
Sun 07:03:43 PM 37.9106 -90.4869 212° Southwest 148 170 6,000  Level Kansas Center
Sun 07:04:45 PM 37.8764 -90.5125 211° Southwest 145 167 6,000  Level Kansas Center
Sun 07:05:47 PM 37.8400 -90.5403 211° Southwest 149 171 6,000  Level Kansas Center
Sun 07:06:49 PM 37.8053 -90.5667 211° Southwest 148 170 6,000  Level Kansas Center
Sun 07:07:51 PM 37.7678 -90.5878 204° Southwest 148 170 6,000  Level Kansas Center
Sun 07:08:52 PM 37.7336 -90.6164 214° Southwest 147 169 6,000  Level Kansas Center
Sun 07:09:54 PM 37.6964 -90.6386 205° Southwest 148 170 6,000  Level Kansas Center
Sun 07:10:56 PM 37.6531 -90.6667 207° Southwest 148 170 6,000  Level Kansas Center
Sun 07:11:58 PM 37.6158 -90.6919 208° Southwest 149 171 6,000  Level Kansas Center
Sun 07:13:00 PM 37.5794 -90.7175 209° Southwest 150 173 6,000  Level Kansas Center
Sun 07:14:01 PM 37.5428 -90.7414 207° Southwest 149 171 6,000  Level Kansas Center
Sun 07:15:03 PM 37.5019 -90.7650 205° Southwest 148 170 6,000  Level Kansas Center
Sun 07:16:05 PM 37.4647 -90.7894 208° Southwest 149 171 6,000  Level Kansas Center
Sun 07:17:07 PM 37.4283 -90.8131 207° Southwest 148 170 6,000 -49 Level Kansas Center
Sun 07:18:08 PM 37.3900 -90.8367 206° Southwest 151 174 5,900 -49 Descending Kansas Center
Sun 07:19:10 PM 37.3522 -90.8636 210° Southwest 154 177 5,900 -48 Level Kansas Center
Sun 07:20:12 PM 37.3153 -90.8861 206° Southwest 150 173 5,800 -49 Descending Kansas Center
Sun 07:21:13 PM 37.2706 -90.9144 207° Southwest 149 171 5,800  Level Kansas Center
Sun 07:22:15 PM 37.2325 -90.9400 208° Southwest 152 175 5,800  Level Kansas Center
Sun 07:23:17 PM 37.1950 -90.9639 207° Southwest 151 174 5,800 97 Level Kansas Center
Sun 07:24:19 PM 37.1592 -90.9867 207° Southwest 149 171 6,000 98 Climbing Kansas Center
Sun 07:25:20 PM 37.1225 -91.0092 206° Southwest 146 168 6,000  Level Kansas Center
Sun 07:26:22 PM 37.0831 -91.0361 209° Southwest 149 171 6,000  Level Kansas Center
Sun 07:27:24 PM 37.0444 -91.0594 206° Southwest 152 175 6,000  Level Kansas Center
Sun 07:28:25 PM 37.0103 -91.0817 207° Southwest 146 168 6,000  Level Kansas Center
Sun 07:29:27 PM 36.9647 -91.1103 207° Southwest 151 174 6,000  Level Kansas Center
Sun 07:30:29 PM 36.9269 -91.1353 208° Southwest 153 176 6,000  Level Kansas Center
Sun 07:31:30 PM 36.8894 -91.1589 207° Southwest 152 175 6,000  Level Kansas Center
Sun 07:32:32 PM 36.8525 -91.1822 207° Southwest 148 170 6,000  Level Kansas Center
Sun 07:33:34 PM 36.8156 -91.2053 207° Southwest 148 170 6,000  Level Kansas Center
Sun 07:34:35 PM 36.7792 -91.2297 208° Southwest 149 171 6,000  Level Kansas Center
Sun 07:35:37 PM 36.7433 -91.2600 214° Southwest 152 175 6,000  Level Kansas Center

Login

Don't have an account? Register now (free) for customized features, flight alerts, and more!